Time;durP1;ratioP1;P1;durP2;ratioP2;P2;SDS_P1;SDS_P2;PMS_P1;PMS_P2;Temp;Humidity;BMP_temperature;BMP_pressure;BME280_temperature;BME280_humidity;BME280_pressure;Samples;Min_cycle;Max_cycle;Signal;HPM_P1;HPM_P2
2021/09/30 00:00:28;;;;;;;;;;;;;;;16.63;76.47;101958.28;5075069;28;902;-62
2021/09/30 00:02:53;;;;;;;;;;;;;;;16.62;76.62;101958.34;5074849;28;863;-62
2021/09/30 00:05:18;;;;;;;;;;;;;;;16.61;76.47;101967.41;5074661;28;822;-62
2021/09/30 00:07:43;;;;;;;;;;;;;;;16.59;76.38;101969.34;5074575;28;851;-62
2021/09/30 00:10:09;;;;;;;;;;;;;;;16.56;76.56;101962.34;5074648;28;1016;-62
2021/09/30 00:12:39;;;;;;;;;;;;;;;16.54;76.03;101944.56;5074494;28;847;-66
2021/09/30 00:15:10;;;;;;;;;;;;;;;16.55;76.39;101954.38;5074649;28;1901;-66
2021/09/30 00:17:56;;;;;;;;;;;;;;;16.54;75.97;101958.03;5074515;28;1852;-64
2021/09/30 00:47:17;;;;;;;;;;;;;;;16.53;75.84;101961.69;5078299;28;672;-64
2021/09/30 01:23:09;;;;;;;;;;;;;;;16.51;75.87;101977.94;5077609;28;834;-63
2021/09/30 01:52:11;;;;;;;;;;;;;;;16.44;76.14;101981.19;5077077;28;657;-65
2021/09/30 02:19:31;;;;;;;;;;;;;;;16.39;76.16;101984.22;5076588;28;721;-63
2021/09/30 02:27:11;;;;;;;;;;;;;;;16.38;76.21;101981.63;5076327;28;1794;-64
2021/09/30 02:30:01;;;;;;;;;;;;;;;16.37;76.16;101978.06;5076416;28;1824;-63
2021/09/30 03:00:01;;;;;;;;;;;;;;;16.33;75.97;101995.41;5075736;28;700;-62
2021/09/30 03:02:26;;;;;;;;;;;;;;;16.35;75.88;101992.59;5075834;28;1068;-62
2021/09/30 03:04:51;;;;;;;;;;;;;;;16.33;76.05;101995.41;5075704;28;1037;-62
2021/09/30 03:07:16;;;;;;;;;;;;;;;16.32;76.14;101997.22;5075583;28;1564;-62
2021/09/30 03:09:43;;;;;;;;;;;;;;;16.29;76.00;102002.84;5075381;28;795;-62
2021/09/30 03:12:09;;;;;;;;;;;;;;;16.30;76.24;102001.03;5075721;28;1855;-62
2021/09/30 03:14:39;;;;;;;;;;;;;;;16.29;76.31;102004.69;5057329;28;1955;-63
2021/09/30 03:17:04;;;;;;;;;;;;;;;16.30;76.09;102001.03;5075456;28;1074;-63
2021/09/30 03:19:50;;;;;;;;;;;;;;;16.29;76.11;101997.47;5075460;28;989;-62
2021/09/30 03:22:15;;;;;;;;;;;;;;;16.28;76.26;102009.19;5075119;28;776;-63
2021/09/30 03:24:40;;;;;;;;;;;;;;;16.29;75.95;102012.75;5075534;28;831;-63
2021/09/30 03:27:05;;;;;;;;;;;;;;;16.30;76.15;102006.41;5075280;28;1746;-63
2021/09/30 03:29:30;;;;;;;;;;;;;;;16.28;76.15;102005.66;5075203;28;819;-63
2021/09/30 03:31:55;;;;;;;;;;;;;;;16.28;76.40;102002.97;5075213;28;1110;-63
2021/09/30 03:34:20;;;;;;;;;;;;;;;16.27;75.76;101999.41;5075135;28;926;-63
2021/09/30 03:36:45;;;;;;;;;;;;;;;16.28;75.78;102003.81;5075129;28;1894;-63
2021/09/30 03:39:15;;;;;;;;;;;;;;;16.28;75.72;102002.97;5074930;28;1009;-62
2021/09/30 03:41:42;;;;;;;;;;;;;;;16.27;75.93;102010.16;5075186;28;854;-62
2021/09/30 03:44:07;;;;;;;;;;;;;;;16.27;75.92;102017.38;5074805;28;1880;-62
2021/09/30 03:46:33;;;;;;;;;;;;;;;16.26;76.05;102023.72;5074778;28;894;-64
2021/09/30 03:48:58;;;;;;;;;;;;;;;16.25;75.64;102013.94;5074853;28;889;-65
2021/09/30 03:57:38;;;;;;;;;;;;;;;16.24;75.50;102026.50;5074766;28;1918;-63
2021/09/30 03:59:35;;;;;;;;;;;;;;;16.24;76.05;102031.03;5064174;28;1674;-63
2021/09/30 04:02:03;;;;;;;;;;;;;;;16.24;75.87;102029.19;5074353;28;1573;-63
2021/09/30 04:04:28;;;;;;;;;;;;;;;16.23;76.03;102029.31;5074677;28;882;-63
2021/09/30 04:06:53;;;;;;;;;;;;;;;16.23;75.66;102032.00;5074899;28;839;-63
2021/09/30 04:09:19;;;;;;;;;;;;;;;16.22;75.40;102036.50;5074718;28;831;-63
2021/09/30 04:11:44;;;;;;;;;;;;;;;16.21;75.99;102026.72;5074503;28;878;-62
2021/09/30 04:14:10;;;;;;;;;;;;;;;16.21;75.89;102039.31;5074929;28;1013;-62
2021/09/30 04:16:35;;;;;;;;;;;;;;;16.19;75.88;102044.78;5074403;28;1949;-62
2021/09/30 04:19:00;;;;;;;;;;;;;;;16.19;76.09;102047.47;5074269;28;867;-62
2021/09/30 04:21:25;;;;;;;;;;;;;;;16.20;75.64;102049.22;5074372;28;1796;-62
2021/09/30 04:23:50;;;;;;;;;;;;;;;16.20;75.90;102048.34;5058719;28;1902;-62
2021/09/30 04:26:15;;;;;;;;;;;;;;;16.18;75.59;102053.81;5074665;28;1049;-62
2021/09/30 04:28:41;;;;;;;;;;;;;;;16.17;75.38;102057.47;5074546;28;930;-62
2021/09/30 04:31:06;;;;;;;;;;;;;;;16.17;75.36;102060.16;5074090;28;1105;-62
2021/09/30 04:33:31;;;;;;;;;;;;;;;16.18;75.55;102061.88;5074623;28;831;-62
2021/09/30 04:35:56;;;;;;;;;;;;;;;16.16;75.81;102062.97;5074217;28;1898;-61
2021/09/30 04:38:21;;;;;;;;;;;;;;;16.15;75.63;102058.53;5074649;28;993;-63
2021/09/30 04:40:46;;;;;;;;;;;;;;;16.16;75.73;102071.88;5074319;28;1149;-62
2021/09/30 04:43:11;;;;;;;;;;;;;;;16.15;75.98;102072.84;5073157;28;1510;-63
2021/09/30 04:45:36;;;;;;;;;;;;;;;16.17;75.13;102065.53;5074864;28;1005;-65
2021/09/30 04:48:01;;;;;;;;;;;;;;;16.20;75.72;102068.03;5073913;28;1555;-64
2021/09/30 04:50:26;;;;;;;;;;;;;;;16.17;76.00;102064.69;5073725;28;1876;-65
2021/09/30 04:52:57;;;;;;;;;;;;;;;16.20;75.64;102075.25;5074254;28;840;-64
2021/09/30 04:55:22;;;;;;;;;;;;;;;16.27;76.12;102071.16;5073841;28;1903;-63
2021/09/30 04:57:47;;;;;;;;;;;;;;;16.36;79.04;102069.66;5074537;28;1080;-63
2021/09/30 05:00:13;;;;;;;;;;;;;;;16.38;76.98;102067.72;5074191;28;1948;-63
2021/09/30 05:02:38;;;;;;;;;;;;;;;16.38;77.05;102073.09;5073859;28;901;-63
2021/09/30 05:05:03;;;;;;;;;;;;;;;16.33;77.04;102071.59;5073381;28;1455;-63
2021/09/30 05:07:28;;;;;;;;;;;;;;;16.32;77.60;102072.56;5073285;28;1552;-62
2021/09/30 05:09:53;;;;;;;;;;;;;;;16.28;77.79;102071.06;5073738;28;1757;-63
2021/09/30 05:12:18;;;;;;;;;;;;;;;16.27;78.10;102077.41;5074108;28;1645;-63
2021/09/30 05:14:43;;;;;;;;;;;;;;;16.25;77.47;102076.66;5074088;28;2043;-63
2021/09/30 05:17:09;;;;;;;;;;;;;;;16.23;77.60;102075.03;5074143;28;1524;-63
2021/09/30 05:19:34;;;;;;;;;;;;;;;16.22;77.71;102079.56;5073968;28;1735;-64
2021/09/30 05:21:59;;;;;;;;;;;;;;;16.23;77.59;102075.91;5072604;28;1925;-64
2021/09/30 05:24:24;;;;;;;;;;;;;;;16.22;77.77;102078.69;5071241;28;1753;-64
2021/09/30 05:26:49;;;;;;;;;;;;;;;16.21;77.76;102085.03;5074007;28;1572;-63
2021/09/30 05:29:14;;;;;;;;;;;;;;;16.21;77.22;102085.91;5074520;28;1065;-63
2021/09/30 05:31:39;;;;;;;;;;;;;;;16.18;77.30;102086.09;5076345;28;961;-64
2021/09/30 05:34:04;;;;;;;;;;;;;;;16.18;77.28;102078.03;5077515;28;1524;-64
2021/09/30 05:36:29;;;;;;;;;;;;;;;16.18;77.00;102079.84;5077000;28;1894;-64
2021/09/30 05:38:54;;;;;;;;;;;;;;;16.17;76.66;102081.69;5076857;28;1251;-63
2021/09/30 05:41:20;;;;;;;;;;;;;;;16.18;76.84;102083.41;5075673;28;1546;-63
2021/09/30 05:43:58;;;;;;;;;;;;;;;16.17;76.64;102075.44;5076905;28;1362;-63
2021/09/30 05:46:40;;;;;;;;;;;;;;;16.16;76.89;102079.97;5074261;28;1141;-63
2021/09/30 05:49:05;;;;;;;;;;;;;;;16.15;76.65;102078.22;5077179;28;1251;-63
2021/09/30 05:51:30;;;;;;;;;;;;;;;16.13;76.26;102082.84;5076686;28;1156;-64
2021/09/30 05:53:55;;;;;;;;;;;;;;;16.13;76.87;102090.91;5058533;28;2585;-63
2021/09/30 05:56:20;;;;;;;;;;;;;;;16.12;76.71;102086.50;5076833;28;1965;-63
2021/09/30 05:58:46;;;;;;;;;;;;;;;16.13;76.55;102087.38;5076778;28;870;-64
2021/09/30 06:14:19;;;;;;;;;;;;;;;16.25;75.49;102089.25;5076895;28;738;-63
2021/09/30 06:16:45;;;;;;;;;;;;;;;16.28;75.46;102100.66;5076501;28;1898;-63
2021/09/30 06:19:11;;;;;;;;;;;;;;;16.33;75.04;102097.63;5077340;28;925;-63
2021/09/30 06:21:36;;;;;;;;;;;;;;;16.37;74.56;102103.66;5076707;28;843;-63
2021/09/30 06:24:01;;;;;;;;;;;;;;;16.42;74.78;102112.28;5076989;28;1443;-64
2021/09/30 06:26:28;;;;;;;;;;;;;;;16.48;73.96;102118.09;5076670;28;820;-63
2021/09/30 06:28:53;;;;;;;;;;;;;;;16.52;74.21;102103.44;5076726;28;799;-63
2021/09/30 06:31:18;;;;;;;;;;;;;;;16.57;74.26;102111.22;5075955;28;1936;-63
2021/09/30 06:33:43;;;;;;;;;;;;;;;16.62;73.79;102109.94;5076382;28;930;-64
2021/09/30 06:36:08;;;;;;;;;;;;;;;16.66;74.04;102115.97;5076494;28;1897;-64
2021/09/30 06:38:33;;;;;;;;;;;;;;;16.71;74.12;102112.97;5076119;28;1871;-64
2021/09/30 06:40:58;;;;;;;;;;;;;;;16.75;73.66;102099.19;5076176;28;957;-63
2021/09/30 06:43:23;;;;;;;;;;;;;;;16.81;72.87;102103.28;5075933;28;1048;-63
2021/09/30 06:45:50;;;;;;;;;;;;;;;16.86;72.83;102101.09;5076148;28;985;-63
2021/09/30 06:48:16;;;;;;;;;;;;;;;16.89;72.80;102109.81;5076081;28;763;-64
2021/09/30 06:50:41;;;;;;;;;;;;;;;16.94;73.01;102107.66;5058115;28;835;-63
2021/09/30 06:53:06;;;;;;;;;;;;;;;16.97;73.29;102110.16;5075569;28;993;-63
2021/09/30 06:55:31;;;;;;;;;;;;;;;17.02;73.17;102111.66;5076763;28;1922;-63
2021/09/30 06:57:56;;;;;;;;;;;;;;;17.02;73.47;102102.56;5076081;28;831;-63
2021/09/30 07:00:22;;;;;;;;;;;;;;;17.04;73.15;102104.31;5075549;28;1909;-64
2021/09/30 07:02:47;;;;;;;;;;;;;;;17.05;73.10;102103.34;5075697;28;1530;-63
2021/09/30 07:05:12;;;;;;;;;;;;;;;17.10;72.59;102106.56;5075849;28;910;-63
2021/09/30 07:07:37;;;;;;;;;;;;;;;17.12;73.41;102112.72;5075541;28;823;-63
2021/09/30 07:10:02;;;;;;;;;;;;;;;17.12;72.14;102112.72;5075428;28;1053;-64
2021/09/30 07:12:27;;;;;;;;;;;;;;;17.12;72.63;102118.09;5075743;28;847;-63
2021/09/30 07:14:52;;;;;;;;;;;;;;;17.07;72.47;102114.88;5075383;28;1918;-63
2021/09/30 07:17:17;;;;;;;;;;;;;;;17.06;71.60;102115.81;5075605;28;1013;-63
2021/09/30 07:19:42;;;;;;;;;;;;;;;17.02;72.00;102119.75;5075532;28;957;-63
2021/09/30 07:22:07;;;;;;;;;;;;;;;16.97;73.03;102111.97;5075125;28;819;-63
2021/09/30 07:24:33;;;;;;;;;;;;;;;16.97;72.37;102115.53;5075317;28;787;-63
2021/09/30 07:26:58;;;;;;;;;;;;;;;17.05;73.64;102128.44;5075215;28;906;-63
2021/09/30 07:29:23;;;;;;;;;;;;;;;17.12;73.37;102129.72;5075174;28;1836;-63
2021/09/30 07:31:48;;;;;;;;;;;;;;;17.17;72.36;102126.72;5075194;28;1768;-63
2021/09/30 07:34:13;;;;;;;;;;;;;;;17.21;72.64;102133.56;5075366;28;1005;-63
2021/09/30 07:36:38;;;;;;;;;;;;;;;17.26;72.56;102126.88;5075211;28;1965;-63
2021/09/30 07:39:03;;;;;;;;;;;;;;;17.28;71.58;102127.66;5074965;28;906;-64
2021/09/30 07:41:28;;;;;;;;;;;;;;;17.34;72.76;102129.91;5075000;28;918;-63
2021/09/30 07:43:53;;;;;;;;;;;;;;;17.37;72.48;102134.22;5075203;28;885;-63
2021/09/30 07:46:19;;;;;;;;;;;;;;;17.38;72.50;102135.91;5075220;28;981;-63
2021/09/30 07:48:44;;;;;;;;;;;;;;;17.37;72.32;102139.59;5074964;28;965;-63
2021/09/30 07:51:09;;;;;;;;;;;;;;;17.35;72.46;102141.53;5074837;28;811;-63
2021/09/30 07:53:34;;;;;;;;;;;;;;;17.35;72.26;102141.53;5074436;28;1168;-64
2021/09/30 07:55:59;;;;;;;;;;;;;;;17.32;72.96;102141.75;5074900;28;1905;-63
2021/09/30 07:58:25;;;;;;;;;;;;;;;17.33;72.14;102143.47;5074877;28;823;-63
2021/09/30 08:00:50;;;;;;;;;;;;;;;17.38;72.01;102138.59;5074533;28;1858;-64
2021/09/30 08:03:15;;;;;;;;;;;;;;;17.40;72.19;102135.78;5074473;28;1827;-63
2021/09/30 08:05:40;;;;;;;;;;;;;;;17.43;72.53;102144.53;5074714;28;1017;-63
2021/09/30 08:08:05;;;;;;;;;;;;;;;17.43;72.23;102139.13;5074693;28;953;-64
2021/09/30 08:10:30;;;;;;;;;;;;;;;17.44;72.49;102143.56;5074915;28;815;-64
2021/09/30 08:12:55;;;;;;;;;;;;;;;17.43;72.46;102141.81;5075328;28;899;-63
2021/09/30 08:15:21;;;;;;;;;;;;;;;17.46;72.03;102143.44;5074665;28;1936;-63
2021/09/30 08:17:46;;;;;;;;;;;;;;;17.44;72.03;102145.38;5074776;28;1021;-63
2021/09/30 08:20:11;;;;;;;;;;;;;;;17.44;71.95;102148.94;5074688;28;903;-64
2021/09/30 08:22:36;;;;;;;;;;;;;;;17.39;72.07;102143.03;5074500;28;858;-64
2021/09/30 08:25:01;;;;;;;;;;;;;;;17.33;71.64;102146.19;5074740;28;1040;-63
2021/09/30 08:27:26;;;;;;;;;;;;;;;17.30;72.18;102146.41;5074657;28;985;-63
2021/09/30 08:29:51;;;;;;;;;;;;;;;17.25;71.86;102145.84;5074477;28;1953;-64
2021/09/30 08:32:16;;;;;;;;;;;;;;;17.25;72.01;102151.25;5074489;28;811;-64
2021/09/30 08:34:41;;;;;;;;;;;;;;;17.21;72.32;102141.66;5074829;28;997;-63
2021/09/30 08:37:07;;;;;;;;;;;;;;;17.20;72.25;102145.31;5074384;28;1935;-64
2021/09/30 08:39:32;;;;;;;;;;;;;;;17.20;72.45;102154.25;5074471;28;791;-64
2021/09/30 08:41:58;;;;;;;;;;;;;;;17.19;72.06;102147.19;5074516;28;779;-63
2021/09/30 08:44:23;;;;;;;;;;;;;;;17.16;72.12;102143.84;5074586;28;818;-64
2021/09/30 08:46:48;;;;;;;;;;;;;;;17.14;72.21;102148.47;5074676;28;989;-63
2021/09/30 08:49:13;;;;;;;;;;;;;;;17.12;72.50;102148.59;5074335;28;827;-63
2021/09/30 08:51:38;;;;;;;;;;;;;;;17.09;72.24;102147.94;5056530;28;699;-63
2021/09/30 08:54:03;;;;;;;;;;;;;;;17.07;71.69;102142.66;5056142;28;1562;-64
2021/09/30 08:56:33;;;;;;;;;;;;;;;17.08;72.49;102132.75;5074371;28;1898;-63
2021/09/30 08:58:58;;;;;;;;;;;;;;;17.07;71.83;102137.28;5074276;28;1809;-64
2021/09/30 09:01:23;;;;;;;;;;;;;;;17.06;72.11;102140.06;5074033;28;1068;-64
2021/09/30 09:03:49;;;;;;;;;;;;;;;17.06;72.18;102134.69;5074243;28;994;-64
2021/09/30 09:06:14;;;;;;;;;;;;;;;17.03;72.36;102119.59;5077721;28;783;-63
2021/09/30 09:08:39;;;;;;;;;;;;;;;17.03;72.77;102125.00;5077762;28;1872;-64
2021/09/30 09:11:04;;;;;;;;;;;;;;;17.02;72.47;102133.22;5077803;28;2082;-63
2021/09/30 09:13:29;;;;;;;;;;;;;;;16.99;72.67;102131.59;5078144;28;922;-63
2021/09/30 09:15:56;;;;;;;;;;;;;;;16.98;72.56;102138.81;5077506;28;1947;-63
2021/09/30 09:18:21;;;;;;;;;;;;;;;16.96;72.36;102138.06;5077879;28;1834;-65
2021/09/30 09:20:47;;;;;;;;;;;;;;;16.95;72.32;102133.63;5077713;28;953;-64
2021/09/30 09:23:12;;;;;;;;;;;;;;;16.93;72.42;102130.19;5059528;28;844;-63
2021/09/30 09:25:37;;;;;;;;;;;;;;;16.92;72.50;102136.53;5077876;28;839;-63
2021/09/30 09:28:02;;;;;;;;;;;;;;;16.93;72.62;102140.97;5077549;28;815;-64
2021/09/30 09:30:27;;;;;;;;;;;;;;;16.91;72.62;102132.13;5077733;28;997;-63
2021/09/30 09:32:52;;;;;;;;;;;;;;;16.90;72.16;102130.41;5077751;28;899;-63
2021/09/30 09:35:17;;;;;;;;;;;;;;;16.91;72.16;102132.13;5077550;28;1893;-64
2021/09/30 09:37:42;;;;;;;;;;;;;;;16.93;72.37;102134.72;5077435;28;787;-64
2021/09/30 09:40:07;;;;;;;;;;;;;;;16.94;72.29;102136.44;5076997;28;1758;-64
2021/09/30 09:42:32;;;;;;;;;;;;;;;16.94;72.15;102123.84;5077609;28;981;-64
2021/09/30 09:44:58;;;;;;;;;;;;;;;16.93;72.52;102124.81;5077439;28;885;-64
2021/09/30 09:47:23;;;;;;;;;;;;;;;16.95;72.29;102127.38;5077484;28;1815;-64
2021/09/30 09:49:48;;;;;;;;;;;;;;;16.96;72.34;102121.91;5077343;28;962;-64
2021/09/30 09:52:13;;;;;;;;;;;;;;;16.95;71.93;102119.31;5077073;28;934;-64
2021/09/30 09:54:39;;;;;;;;;;;;;;;16.94;72.31;102118.44;5077330;28;1125;-64
2021/09/30 09:57:04;;;;;;;;;;;;;;;16.98;72.13;102119.09;5076975;28;1898;-64
2021/09/30 09:59:29;;;;;;;;;;;;;;;16.96;71.73;102115.66;5077015;28;1888;-63
2021/09/30 10:01:54;;;;;;;;;;;;;;;16.96;71.92;102118.34;5076804;28;1900;-64
2021/09/30 10:04:19;;;;;;;;;;;;;;;16.96;72.10;102112.94;5076903;28;826;-63
2021/09/30 10:06:44;;;;;;;;;;;;;;;16.94;71.63;102110.38;5076916;28;1013;-63
2021/09/30 10:09:11;;;;;;;;;;;;;;;16.95;71.99;102111.22;5076803;28;977;-63
2021/09/30 10:11:36;;;;;;;;;;;;;;;16.95;71.68;102122.88;5077020;28;827;-64
2021/09/30 10:14:01;;;;;;;;;;;;;;;16.94;71.86;102118.44;5077177;28;965;-63
2021/09/30 10:16:26;;;;;;;;;;;;;;;16.95;71.70;102116.63;5075841;28;1890;-63
2021/09/30 10:18:51;;;;;;;;;;;;;;;16.92;71.63;102109.63;5076637;28;1799;-63
2021/09/30 10:21:17;;;;;;;;;;;;;;;16.93;71.11;102115.84;5076837;28;1842;-64
2021/09/30 10:23:42;;;;;;;;;;;;;;;16.94;71.58;102114.88;5076346;28;788;-64
2021/09/30 10:26:07;;;;;;;;;;;;;;;16.93;71.17;102114.03;5076757;28;977;-64
2021/09/30 10:28:32;;;;;;;;;;;;;;;16.94;70.88;102109.50;5076478;28;1012;-63
2021/09/30 10:30:57;;;;;;;;;;;;;;;16.92;71.05;102112.31;5076614;28;1013;-64
2021/09/30 10:33:23;;;;;;;;;;;;;;;16.90;70.94;102106.16;5076453;28;846;-64
2021/09/30 10:35:50;;;;;;;;;;;;;;;16.91;70.95;102109.72;5058368;28;1901;-64
2021/09/30 10:38:16;;;;;;;;;;;;;;;16.87;70.31;102100.13;5076268;28;1760;-64
2021/09/30 10:40:41;;;;;;;;;;;;;;;16.88;70.30;102099.16;5076318;28;854;-64
2021/09/30 10:43:06;;;;;;;;;;;;;;;16.86;69.89;102098.41;5076127;28;965;-63
2021/09/30 10:45:31;;;;;;;;;;;;;;;16.85;70.76;102099.38;5076303;28;862;-64
2021/09/30 10:47:56;;;;;;;;;;;;;;;16.84;70.55;102103.91;5076271;28;1001;-64
2021/09/30 10:50:21;;;;;;;;;;;;;;;16.82;69.76;102100.47;5076107;28;913;-64
2021/09/30 10:52:46;;;;;;;;;;;;;;;16.82;70.52;102099.63;5075933;28;1060;-64
2021/09/30 10:55:14;;;;;;;;;;;;;;;16.82;70.04;102103.19;5076455;28;1913;-64
2021/09/30 10:57:39;;;;;;;;;;;;;;;16.84;70.27;102103.06;5076213;28;1864;-63
2021/09/30 11:00:04;;;;;;;;;;;;;;;16.84;70.24;102097.69;5076105;28;980;-63
2021/09/30 11:02:29;;;;;;;;;;;;;;;16.83;70.54;102101.34;5075898;28;1077;-64
2021/09/30 11:04:54;;;;;;;;;;;;;;;16.83;70.10;102112.13;5075732;28;969;-64
2021/09/30 11:07:19;;;;;;;;;;;;;;;16.83;70.01;102101.34;5075601;28;1739;-63
2021/09/30 11:09:44;;;;;;;;;;;;;;;16.80;70.01;102097.03;5075421;28;997;-64
2021/09/30 11:12:09;;;;;;;;;;;;;;;16.81;70.40;102097.91;5075688;28;902;-63
2021/09/30 11:14:34;;;;;;;;;;;;;;;16.81;70.55;102103.28;5075460;28;1060;-64
2021/09/30 11:16:59;;;;;;;;;;;;;;;16.81;70.30;102093.38;5057149;28;1894;-64
2021/09/30 11:19:24;;;;;;;;;;;;;;;16.80;69.85;102097.03;5057559;28;677;-64
2021/09/30 11:21:49;;;;;;;;;;;;;;;16.80;70.07;102090.78;5075387;28;1009;-64
2021/09/30 11:24:15;;;;;;;;;;;;;;;16.81;70.08;102095.19;5075292;28;910;-64
2021/09/30 11:26:40;;;;;;;;;;;;;;;16.80;70.45;102088.97;5075426;28;1902;-64
2021/09/30 11:29:05;;;;;;;;;;;;;;;16.82;70.27;102088.84;5075134;28;882;-64
2021/09/30 11:31:30;;;;;;;;;;;;;;;16.82;70.25;102080.78;5075480;28;1049;-63
2021/09/30 11:33:55;;;;;;;;;;;;;;;16.81;70.05;102082.59;5057460;28;842;-64
2021/09/30 11:36:20;;;;;;;;;;;;;;;16.82;70.01;102083.47;5075065;28;1885;-64
2021/09/30 11:38:45;;;;;;;;;;;;;;;16.81;69.73;102088.00;5074791;28;1855;-64
2021/09/30 11:41:10;;;;;;;;;;;;;;;16.80;70.44;102085.41;5075082;28;819;-64
2021/09/30 11:43:35;;;;;;;;;;;;;;;16.80;69.70;102094.34;5075452;28;886;-63
2021/09/30 11:46:00;;;;;;;;;;;;;;;16.79;69.81;102087.22;5074811;28;1875;-63
2021/09/30 11:48:25;;;;;;;;;;;;;;;16.80;70.18;102088.97;5075110;28;1918;-64
2021/09/30 11:50:50;;;;;;;;;;;;;;;16.78;69.97;102085.50;5074895;28;1414;-64
2021/09/30 11:53:16;;;;;;;;;;;;;;;16.78;69.89;102076.56;5075121;28;1021;-64
2021/09/30 11:55:41;;;;;;;;;;;;;;;16.79;69.86;102073.78;5075211;28;1979;-64
2021/09/30 11:58:07;;;;;;;;;;;;;;;16.77;69.74;102064.94;5074862;28;1917;-63
2021/09/30 12:00:33;;;;;;;;;;;;;;;16.79;69.88;102084.53;5074844;28;799;-64
2021/09/30 12:02:58;;;;;;;;;;;;;;;16.76;69.54;102065.91;5075190;28;815;-63
2021/09/30 12:05:28;;;;;;;;;;;;;;;16.78;69.84;102068.50;5056720;28;831;-63
2021/09/30 12:07:54;;;;;;;;;;;;;;;16.77;69.75;102070.31;5074769;28;831;-63
2021/09/30 12:10:19;;;;;;;;;;;;;;;16.79;69.77;102068.38;5074839;28;835;-64
2021/09/30 12:12:45;;;;;;;;;;;;;;;16.78;69.48;102065.81;5074972;28;906;-63
2021/09/30 12:15:11;;;;;;;;;;;;;;;16.79;69.25;102062.13;5074752;28;1910;-64
2021/09/30 12:17:36;;;;;;;;;;;;;;;16.78;69.35;102058.59;5074516;28;1774;-63
2021/09/30 12:20:01;;;;;;;;;;;;;;;16.77;69.21;102054.16;5074629;28;830;-63
2021/09/30 12:22:26;;;;;;;;;;;;;;;16.78;69.39;102053.19;5056476;28;1310;-63
2021/09/30 12:24:51;;;;;;;;;;;;;;;16.80;69.43;102055.78;5074369;28;1805;-63
2021/09/30 12:27:16;;;;;;;;;;;;;;;16.80;69.46;102053.09;5074685;28;1065;-63
2021/09/30 12:29:41;;;;;;;;;;;;;;;16.79;69.47;102054.94;5074524;28;815;-63
2021/09/30 12:32:06;;;;;;;;;;;;;;;16.77;69.52;102046.09;5074553;28;791;-64
2021/09/30 12:34:31;;;;;;;;;;;;;;;16.75;69.60;102050.72;5074719;28;1009;-64
2021/09/30 12:36:56;;;;;;;;;;;;;;;16.76;69.48;102052.44;5074198;28;1975;-63
2021/09/30 12:39:21;;;;;;;;;;;;;;;16.76;69.84;102036.31;5074873;28;1792;-64
2021/09/30 12:41:46;;;;;;;;;;;;;;;16.78;69.55;102050.50;5078214;28;1250;-64
2021/09/30 12:44:12;;;;;;;;;;;;;;;16.78;69.79;102045.13;5078676;28;1017;-64
2021/09/30 12:46:37;;;;;;;;;;;;;;;16.77;69.38;102038.03;5078454;28;826;-64
2021/09/30 12:49:02;;;;;;;;;;;;;;;16.74;69.63;102030.16;5078344;28;1028;-63
2021/09/30 12:51:27;;;;;;;;;;;;;;;16.74;69.68;102029.28;5078261;28;924;-63
2021/09/30 12:53:52;;;;;;;;;;;;;;;16.73;69.80;102033.81;5077917;28;1323;-64
2021/09/30 12:56:17;;;;;;;;;;;;;;;16.72;69.68;102028.53;5078273;28;1968;-64
2021/09/30 12:58:45;;;;;;;;;;;;;;;16.73;69.57;102031.13;5078209;28;934;-64
2021/09/30 13:01:10;;;;;;;;;;;;;;;16.73;70.03;102031.13;5078565;28;822;-63
2021/09/30 13:03:35;;;;;;;;;;;;;;;16.72;69.49;102024.03;5077908;28;997;-64
2021/09/30 13:06:00;;;;;;;;;;;;;;;16.72;69.71;102024.03;5077996;28;918;-64
2021/09/30 13:08:25;;;;;;;;;;;;;;;16.73;70.03;102024.88;5077809;28;1049;-64
2021/09/30 13:10:50;;;;;;;;;;;;;;;16.73;69.62;102019.50;5059863;28;1270;-64
2021/09/30 13:13:15;;;;;;;;;;;;;;;16.73;69.77;102025.75;5078002;28;881;-64
2021/09/30 13:15:41;;;;;;;;;;;;;;;16.71;69.87;102016.06;5078051;28;1969;-64
2021/09/30 13:18:06;;;;;;;;;;;;;;;16.70;69.89;102017.03;5059710;28;1716;-64
2021/09/30 13:20:31;;;;;;;;;;;;;;;16.70;70.16;102009.81;5077773;28;850;-63
2021/09/30 13:22:56;;;;;;;;;;;;;;;16.69;70.20;102008.09;5077579;28;831;-64
2021/09/30 13:25:21;;;;;;;;;;;;;;;16.70;69.88;102014.34;5077540;28;954;-64
2021/09/30 13:27:46;;;;;;;;;;;;;;;16.69;70.08;102001.84;5077540;28;859;-64
2021/09/30 13:30:11;;;;;;;;;;;;;;;16.66;69.87;101987.63;5077714;28;919;-62
2021/09/30 13:32:36;;;;;;;;;;;;;;;16.67;69.78;101989.34;5071733;28;2399;-65
2021/09/30 13:35:01;;;;;;;;;;;;;;;16.65;69.82;101980.56;5069698;28;1961;-63
2021/09/30 13:37:27;;;;;;;;;;;;;;;16.65;70.24;101979.69;5070593;28;1391;-64
2021/09/30 13:39:56;;;;;;;;;;;;;;;16.65;69.66;101974.31;5073802;28;1182;-64
2021/09/30 13:42:21;;;;;;;;;;;;;;;16.65;70.08;101971.63;5057850;28;1600;-64
2021/09/30 13:44:46;;;;;;;;;;;;;;;16.65;70.15;101974.31;5077203;28;1822;-63
2021/09/30 13:47:11;;;;;;;;;;;;;;;16.64;70.39;101965.38;5077357;28;1886;-64
2021/09/30 13:49:36;;;;;;;;;;;;;;;16.65;70.57;101963.53;5076611;28;1420;-62
2021/09/30 13:52:01;;;;;;;;;;;;;;;16.64;69.66;101959.13;5066616;28;1457;-63
2021/09/30 13:54:26;;;;;;;;;;;;;;;16.65;70.70;101955.47;5075281;28;1352;-63
2021/09/30 13:56:52;;;;;;;;;;;;;;;16.63;70.61;101944.81;5060333;28;1918;-63
2021/09/30 13:59:17;;;;;;;;;;;;;;;16.63;70.70;101944.81;5073252;28;1932;-63
2021/09/30 14:01:42;;;;;;;;;;;;;;;16.64;70.50;101934.91;5075354;28;1546;-63
2021/09/30 14:04:07;;;;;;;;;;;;;;;16.63;70.73;101935.88;5050512;28;1640;-62
2021/09/30 14:06:32;;;;;;;;;;;;;;;16.64;70.74;101940.28;5070166;28;1277;-63
2021/09/30 14:08:57;;;;;;;;;;;;;;;16.64;70.76;101937.59;5074606;28;1336;-63
2021/09/30 14:11:22;;;;;;;;;;;;;;;16.62;71.10;101929.59;5073718;28;1354;-63
2021/09/30 14:13:47;;;;;;;;;;;;;;;16.63;70.56;101922.44;5059848;28;1684;-64
2021/09/30 14:16:12;;;;;;;;;;;;;;;16.64;70.83;101921.47;5074741;28;1898;-63
2021/09/30 14:18:38;;;;;;;;;;;;;;;16.63;70.85;101922.44;5065013;28;1801;-63
2021/09/30 14:21:03;;;;;;;;;;;;;;;16.62;70.67;101920.66;5056598;28;1469;-63
2021/09/30 14:23:28;;;;;;;;;;;;;;;16.60;70.79;101917.22;5074402;28;1324;-64
2021/09/30 14:25:53;;;;;;;;;;;;;;;16.59;70.64;101910.13;5066083;28;1425;-66
2021/09/30 14:28:18;;;;;;;;;;;;;;;16.58;70.97;101913.78;5075220;28;1391;-63
2021/09/30 14:30:43;;;;;;;;;;;;;;;16.58;70.42;101906.56;5074916;28;1298;-64
2021/09/30 14:33:08;;;;;;;;;;;;;;;16.58;70.70;101906.56;5072543;28;1546;-64
2021/09/30 14:35:33;;;;;;;;;;;;;;;16.61;70.92;101902.81;5066133;28;1898;-66
2021/09/30 14:37:58;;;;;;;;;;;;;;;16.67;70.36;101903.22;5074257;28;1328;-64
2021/09/30 14:40:23;;;;;;;;;;;;;;;16.67;70.15;101896.97;5074081;28;1439;-64
2021/09/30 14:42:48;;;;;;;;;;;;;;;16.65;70.73;101896.25;5074143;28;1395;-65
2021/09/30 14:45:14;;;;;;;;;;;;;;;16.62;70.99;101886.53;5071318;28;1559;-65
2021/09/30 14:47:39;;;;;;;;;;;;;;;16.58;71.17;101876.97;5074346;28;1400;-65
2021/09/30 14:50:04;;;;;;;;;;;;;;;16.57;71.11;101879.78;5067890;28;1698;-65
2021/09/30 14:52:29;;;;;;;;;;;;;;;16.58;70.47;101878.81;5074330;28;1381;-64
2021/09/30 14:54:54;;;;;;;;;;;;;;;16.57;70.53;101866.31;5071507;28;1462;-63
2021/09/30 14:57:19;;;;;;;;;;;;;;;16.57;71.11;101869.00;5072565;28;1965;-64
2021/09/30 14:59:44;;;;;;;;;;;;;;;16.56;70.48;101861.91;5071728;28;1586;-65
2021/09/30 15:02:09;;;;;;;;;;;;;;;16.57;70.57;101858.25;5055357;28;1266;-65
2021/09/30 15:04:34;;;;;;;;;;;;;;;16.56;70.69;101851.13;5060457;28;1840;-65
2021/09/30 15:07:00;;;;;;;;;;;;;;;16.56;70.47;101856.53;5073999;28;1831;-64
2021/09/30 15:09:25;;;;;;;;;;;;;;;16.57;70.85;101855.56;5070066;28;1310;-66
2021/09/30 15:11:50;;;;;;;;;;;;;;;16.57;71.04;101844.78;5057291;28;1466;-65
2021/09/30 15:14:15;;;;;;;;;;;;;;;16.56;71.05;101853.84;5065370;28;1276;-65
2021/09/30 15:16:45;;;;;;;;;;;;;;;16.55;70.50;101850.28;5062458;28;1953;-64
2021/09/30 15:19:18;;;;;;;;;;;;;;;16.55;70.92;101841.34;5064319;28;1529;-65
2021/09/30 15:21:43;;;;;;;;;;;;;;;16.54;70.31;101853.09;5074791;28;1865;-64
2021/09/30 15:24:09;;;;;;;;;;;;;;;16.53;70.57;101843.28;5065038;28;1509;-65